sensor_id;sensor_type;location;lat;lon;timestamp;pressure;altitude;pressure_sealevel;temperature
5571;BMP180;2808;51.240;6.794;2022-07-29T00:00:34;101099.00;;;20.20
5571;BMP180;2808;51.240;6.794;2022-07-29T00:03:04;101094.00;;;20.20
5571;BMP180;2808;51.240;6.794;2022-07-29T00:05:35;101091.00;;;20.20
5571;BMP180;2808;51.240;6.794;2022-07-29T00:08:04;101081.00;;;20.20
5571;BMP180;2808;51.240;6.794;2022-07-29T00:10:32;101086.00;;;20.20
5571;BMP180;2808;51.240;6.794;2022-07-29T00:12:59;101082.00;;;20.20
5571;BMP180;2808;51.240;6.794;2022-07-29T00:15:27;101080.00;;;20.20
5571;BMP180;2808;51.240;6.794;2022-07-29T00:17:54;101076.00;;;20.20
5571;BMP180;2808;51.240;6.794;2022-07-29T00:20:22;101069.00;;;20.10
5571;BMP180;2808;51.240;6.794;2022-07-29T00:22:49;101070.00;;;20.20
5571;BMP180;2808;51.240;6.794;2022-07-29T00:25:20;101065.00;;;20.20
5571;BMP180;2808;51.240;6.794;2022-07-29T00:27:47;101065.00;;;20.20
5571;BMP180;2808;51.240;6.794;2022-07-29T00:30:15;101054.00;;;20.10
5571;BMP180;2808;51.240;6.794;2022-07-29T00:32:46;101048.00;;;20.10
5571;BMP180;2808;51.240;6.794;2022-07-29T00:35:13;101045.00;;;20.00
5571;BMP180;2808;51.240;6.794;2022-07-29T00:37:58;101034.00;;;20.00
5571;BMP180;2808;51.240;6.794;2022-07-29T00:40:27;101036.00;;;20.00
5571;BMP180;2808;51.240;6.794;2022-07-29T00:42:58;101032.00;;;20.00
5571;BMP180;2808;51.240;6.794;2022-07-29T00:45:26;101033.00;;;20.00
5571;BMP180;2808;51.240;6.794;2022-07-29T00:47:53;101024.00;;;20.00
5571;BMP180;2808;51.240;6.794;2022-07-29T00:50:21;101010.00;;;20.00
5571;BMP180;2808;51.240;6.794;2022-07-29T00:52:48;101010.00;;;20.00
5571;BMP180;2808;51.240;6.794;2022-07-29T00:55:17;101005.00;;;19.90
5571;BMP180;2808;51.240;6.794;2022-07-29T00:57:46;101009.00;;;19.90
5571;BMP180;2808;51.240;6.794;2022-07-29T01:00:16;101010.00;;;19.90
5571;BMP180;2808;51.240;6.794;2022-07-29T01:02:47;100999.00;;;19.90
5571;BMP180;2808;51.240;6.794;2022-07-29T01:05:16;100997.00;;;19.90
5571;BMP180;2808;51.240;6.794;2022-07-29T01:07:46;101007.00;;;19.90
5571;BMP180;2808;51.240;6.794;2022-07-29T01:10:15;101007.00;;;20.00
5571;BMP180;2808;51.240;6.794;2022-07-29T01:12:46;101006.00;;;20.00
5571;BMP180;2808;51.240;6.794;2022-07-29T01:15:15;100995.00;;;19.90
5571;BMP180;2808;51.240;6.794;2022-07-29T01:17:48;100980.00;;;19.90
5571;BMP180;2808;51.240;6.794;2022-07-29T01:20:24;100985.00;;;19.90
5571;BMP180;2808;51.240;6.794;2022-07-29T01:23:17;100998.00;;;19.90
5571;BMP180;2808;51.240;6.794;2022-07-29T01:25:58;100992.00;;;19.90
5571;BMP180;2808;51.240;6.794;2022-07-29T01:31:27;100985.00;;;19.90
5571;BMP180;2808;51.240;6.794;2022-07-29T01:33:58;100998.00;;;19.90
5571;BMP180;2808;51.240;6.794;2022-07-29T01:36:35;100987.00;;;19.90
5571;BMP180;2808;51.240;6.794;2022-07-29T01:39:06;100995.00;;;19.90
5571;BMP180;2808;51.240;6.794;2022-07-29T01:41:37;100988.00;;;19.90
5571;BMP180;2808;51.240;6.794;2022-07-29T01:44:13;100988.00;;;19.90
5571;BMP180;2808;51.240;6.794;2022-07-29T01:46:46;100997.00;;;19.90
5571;BMP180;2808;51.240;6.794;2022-07-29T01:49:20;100989.00;;;19.90
5571;BMP180;2808;51.240;6.794;2022-07-29T01:51:51;100993.00;;;19.90
5571;BMP180;2808;51.240;6.794;2022-07-29T01:54:24;100987.00;;;19.90
5571;BMP180;2808;51.240;6.794;2022-07-29T01:56:55;100997.00;;;19.90
5571;BMP180;2808;51.240;6.794;2022-07-29T01:59:26;100986.00;;;19.90
5571;BMP180;2808;51.240;6.794;2022-07-29T02:01:56;100979.00;;;19.90
5571;BMP180;2808;51.240;6.794;2022-07-29T02:04:27;100979.00;;;19.90
5571;BMP180;2808;51.240;6.794;2022-07-29T02:06:58;100985.00;;;19.90
5571;BMP180;2808;51.240;6.794;2022-07-29T02:09:27;100984.00;;;19.90
5571;BMP180;2808;51.240;6.794;2022-07-29T02:11:56;100976.00;;;19.90
5571;BMP180;2808;51.240;6.794;2022-07-29T02:14:28;100982.00;;;19.90
5571;BMP180;2808;51.240;6.794;2022-07-29T02:16:56;100982.00;;;19.90
5571;BMP180;2808;51.240;6.794;2022-07-29T02:19:25;100985.00;;;19.90
5571;BMP180;2808;51.240;6.794;2022-07-29T02:21:55;100996.00;;;19.90
5571;BMP180;2808;51.240;6.794;2022-07-29T02:24:24;101005.00;;;19.90
5571;BMP180;2808;51.240;6.794;2022-07-29T02:26:53;101006.00;;;19.90
5571;BMP180;2808;51.240;6.794;2022-07-29T02:29:26;101017.00;;;19.90
5571;BMP180;2808;51.240;6.794;2022-07-29T02:31:56;101015.00;;;19.90
5571;BMP180;2808;51.240;6.794;2022-07-29T02:34:25;101021.00;;;19.90
5571;BMP180;2808;51.240;6.794;2022-07-29T02:36:54;101018.00;;;19.90
5571;BMP180;2808;51.240;6.794;2022-07-29T02:39:24;101011.00;;;19.80
5571;BMP180;2808;51.240;6.794;2022-07-29T02:41:55;101010.00;;;19.80
5571;BMP180;2808;51.240;6.794;2022-07-29T02:44:26;101014.00;;;19.70
5571;BMP180;2808;51.240;6.794;2022-07-29T02:47:02;101010.00;;;19.60
5571;BMP180;2808;51.240;6.794;2022-07-29T02:49:35;101018.00;;;19.50
5571;BMP180;2808;51.240;6.794;2022-07-29T02:52:06;101006.00;;;19.50
5571;BMP180;2808;51.240;6.794;2022-07-29T02:54:39;101000.00;;;19.50
5571;BMP180;2808;51.240;6.794;2022-07-29T02:57:18;101013.00;;;19.40
5571;BMP180;2808;51.240;6.794;2022-07-29T02:59:50;101008.00;;;19.40
5571;BMP180;2808;51.240;6.794;2022-07-29T03:02:21;101019.00;;;19.40
5571;BMP180;2808;51.240;6.794;2022-07-29T03:04:50;101026.00;;;19.40
5571;BMP180;2808;51.240;6.794;2022-07-29T03:07:22;101028.00;;;19.40
5571;BMP180;2808;51.240;6.794;2022-07-29T03:09:50;101028.00;;;19.40
5571;BMP180;2808;51.240;6.794;2022-07-29T03:12:18;101030.00;;;19.40
5571;BMP180;2808;51.240;6.794;2022-07-29T03:14:47;101034.00;;;19.40
5571;BMP180;2808;51.240;6.794;2022-07-29T03:17:18;101048.00;;;19.30
5571;BMP180;2808;51.240;6.794;2022-07-29T03:19:47;101064.00;;;19.20
5571;BMP180;2808;51.240;6.794;2022-07-29T03:22:15;101067.00;;;19.20
5571;BMP180;2808;51.240;6.794;2022-07-29T03:24:42;101071.00;;;19.30
5571;BMP180;2808;51.240;6.794;2022-07-29T03:27:10;101079.00;;;19.30
5571;BMP180;2808;51.240;6.794;2022-07-29T03:29:38;101088.00;;;19.30
5571;BMP180;2808;51.240;6.794;2022-07-29T03:32:07;101095.00;;;19.30
5571;BMP180;2808;51.240;6.794;2022-07-29T03:34:36;101106.00;;;19.30
5571;BMP180;2808;51.240;6.794;2022-07-29T03:37:04;101102.00;;;19.20
5571;BMP180;2808;51.240;6.794;2022-07-29T03:39:35;101091.00;;;18.90
5571;BMP180;2808;51.240;6.794;2022-07-29T03:42:06;101101.00;;;18.60
5571;BMP180;2808;51.240;6.794;2022-07-29T03:44:38;101117.00;;;18.50
5571;BMP180;2808;51.240;6.794;2022-07-29T03:47:08;101103.00;;;18.40
5571;BMP180;2808;51.240;6.794;2022-07-29T03:49:37;101093.00;;;18.20
5571;BMP180;2808;51.240;6.794;2022-07-29T03:52:06;101083.00;;;18.10
5571;BMP180;2808;51.240;6.794;2022-07-29T03:54:35;101076.00;;;17.90
5571;BMP180;2808;51.240;6.794;2022-07-29T03:57:04;101068.00;;;17.80
5571;BMP180;2808;51.240;6.794;2022-07-29T03:59:33;101076.00;;;17.70
5571;BMP180;2808;51.240;6.794;2022-07-29T04:02:06;101068.00;;;17.50
5571;BMP180;2808;51.240;6.794;2022-07-29T04:04:37;101054.00;;;17.30
5571;BMP180;2808;51.240;6.794;2022-07-29T04:07:05;101049.00;;;17.10
5571;BMP180;2808;51.240;6.794;2022-07-29T04:09:32;101031.00;;;16.80
5571;BMP180;2808;51.240;6.794;2022-07-29T04:12:00;101034.00;;;16.80
5571;BMP180;2808;51.240;6.794;2022-07-29T04:14:27;101036.00;;;16.70
5571;BMP180;2808;51.240;6.794;2022-07-29T04:16:55;101028.00;;;16.70
5571;BMP180;2808;51.240;6.794;2022-07-29T04:19:22;101026.00;;;16.80
5571;BMP180;2808;51.240;6.794;2022-07-29T04:21:51;101051.00;;;16.80
5571;BMP180;2808;51.240;6.794;2022-07-29T04:24:21;101069.00;;;16.90
5571;BMP180;2808;51.240;6.794;2022-07-29T04:26:49;101079.00;;;16.90
5571;BMP180;2808;51.240;6.794;2022-07-29T04:29:16;101060.00;;;16.80
5571;BMP180;2808;51.240;6.794;2022-07-29T04:31:44;101046.00;;;16.70
5571;BMP180;2808;51.240;6.794;2022-07-29T04:34:12;101050.00;;;16.80
5571;BMP180;2808;51.240;6.794;2022-07-29T04:36:39;101069.00;;;16.60
5571;BMP180;2808;51.240;6.794;2022-07-29T04:39:08;101075.00;;;16.60
5571;BMP180;2808;51.240;6.794;2022-07-29T04:41:36;101068.00;;;16.70
5571;BMP180;2808;51.240;6.794;2022-07-29T04:44:04;101062.00;;;16.60
5571;BMP180;2808;51.240;6.794;2022-07-29T04:46:32;101058.00;;;16.60
5571;BMP180;2808;51.240;6.794;2022-07-29T04:48:59;101064.00;;;16.60
5571;BMP180;2808;51.240;6.794;2022-07-29T04:51:26;101064.00;;;16.60
5571;BMP180;2808;51.240;6.794;2022-07-29T04:53:54;101066.00;;;16.70
5571;BMP180;2808;51.240;6.794;2022-07-29T04:56:23;101054.00;;;16.60
5571;BMP180;2808;51.240;6.794;2022-07-29T04:58:50;101052.00;;;16.60
5571;BMP180;2808;51.240;6.794;2022-07-29T05:01:18;101040.00;;;16.50
5571;BMP180;2808;51.240;6.794;2022-07-29T05:03:45;101036.00;;;16.40
5571;BMP180;2808;51.240;6.794;2022-07-29T05:06:13;101026.00;;;16.30
5571;BMP180;2808;51.240;6.794;2022-07-29T05:08:40;101034.00;;;16.30
5571;BMP180;2808;51.240;6.794;2022-07-29T05:11:08;101034.00;;;16.30
5571;BMP180;2808;51.240;6.794;2022-07-29T05:13:37;101034.00;;;16.40
5571;BMP180;2808;51.240;6.794;2022-07-29T05:16:05;101039.00;;;16.40
5571;BMP180;2808;51.240;6.794;2022-07-29T05:18:36;101040.00;;;16.50
5571;BMP180;2808;51.240;6.794;2022-07-29T05:21:04;101030.00;;;16.50
5571;BMP180;2808;51.240;6.794;2022-07-29T05:23:34;101028.00;;;16.60
5571;BMP180;2808;51.240;6.794;2022-07-29T05:26:01;101033.00;;;16.50
5571;BMP180;2808;51.240;6.794;2022-07-29T05:28:32;101029.00;;;16.40
5571;BMP180;2808;51.240;6.794;2022-07-29T05:31:01;101026.00;;;16.30
5571;BMP180;2808;51.240;6.794;2022-07-29T05:33:28;101035.00;;;16.30
5571;BMP180;2808;51.240;6.794;2022-07-29T05:35:56;101041.00;;;16.40
5571;BMP180;2808;51.240;6.794;2022-07-29T05:38:23;101034.00;;;16.40
5571;BMP180;2808;51.240;6.794;2022-07-29T05:40:51;101042.00;;;16.60
5571;BMP180;2808;51.240;6.794;2022-07-29T05:43:21;101056.00;;;16.70
5571;BMP180;2808;51.240;6.794;2022-07-29T05:45:49;101047.00;;;16.90
5571;BMP180;2808;51.240;6.794;2022-07-29T05:48:18;101039.00;;;17.00
5571;BMP180;2808;51.240;6.794;2022-07-29T05:50:48;101038.00;;;17.10
5571;BMP180;2808;51.240;6.794;2022-07-29T05:53:15;101042.00;;;17.30
5571;BMP180;2808;51.240;6.794;2022-07-29T05:55:43;101037.00;;;17.40
5571;BMP180;2808;51.240;6.794;2022-07-29T05:58:10;101049.00;;;17.40
5571;BMP180;2808;51.240;6.794;2022-07-29T06:00:38;101041.00;;;17.60
5571;BMP180;2808;51.240;6.794;2022-07-29T06:03:05;101048.00;;;17.80
5571;BMP180;2808;51.240;6.794;2022-07-29T06:05:34;101053.00;;;18.00
5571;BMP180;2808;51.240;6.794;2022-07-29T06:08:09;101061.00;;;18.20
5571;BMP180;2808;51.240;6.794;2022-07-29T06:10:50;101070.00;;;18.20
5571;BMP180;2808;51.240;6.794;2022-07-29T06:13:18;101066.00;;;18.20
5571;BMP180;2808;51.240;6.794;2022-07-29T06:15:50;101076.00;;;18.20
5571;BMP180;2808;51.240;6.794;2022-07-29T06:18:22;101072.00;;;18.20
5571;BMP180;2808;51.240;6.794;2022-07-29T06:20:54;101077.00;;;18.30
5571;BMP180;2808;51.240;6.794;2022-07-29T06:23:24;101080.00;;;18.20
5571;BMP180;2808;51.240;6.794;2022-07-29T06:25:54;101074.00;;;18.30
5571;BMP180;2808;51.240;6.794;2022-07-29T06:28:26;101076.00;;;18.20
5571;BMP180;2808;51.240;6.794;2022-07-29T06:31:14;101088.00;;;18.10
5571;BMP180;2808;51.240;6.794;2022-07-29T06:33:43;101095.00;;;18.20
5571;BMP180;2808;51.240;6.794;2022-07-29T06:36:14;101107.00;;;18.30
5571;BMP180;2808;51.240;6.794;2022-07-29T06:38:41;101102.00;;;18.30
5571;BMP180;2808;51.240;6.794;2022-07-29T06:41:09;101107.00;;;18.40
5571;BMP180;2808;51.240;6.794;2022-07-29T06:43:39;101100.00;;;18.40
5571;BMP180;2808;51.240;6.794;2022-07-29T06:46:10;101102.00;;;18.50
5571;BMP180;2808;51.240;6.794;2022-07-29T06:48:38;101099.00;;;18.50
5571;BMP180;2808;51.240;6.794;2022-07-29T06:51:09;101114.00;;;18.50
5571;BMP180;2808;51.240;6.794;2022-07-29T06:53:46;101122.00;;;18.60
5571;BMP180;2808;51.240;6.794;2022-07-29T06:56:13;101120.00;;;18.50
5571;BMP180;2808;51.240;6.794;2022-07-29T06:58:41;101119.00;;;18.50
5571;BMP180;2808;51.240;6.794;2022-07-29T07:01:08;101111.00;;;18.60
5571;BMP180;2808;51.240;6.794;2022-07-29T07:03:36;101111.00;;;18.60
5571;BMP180;2808;51.240;6.794;2022-07-29T07:06:06;101122.00;;;18.70
5571;BMP180;2808;51.240;6.794;2022-07-29T07:08:34;101119.00;;;18.80
5571;BMP180;2808;51.240;6.794;2022-07-29T07:11:03;101119.00;;;18.80
5571;BMP180;2808;51.240;6.794;2022-07-29T07:13:32;101121.00;;;18.80
5571;BMP180;2808;51.240;6.794;2022-07-29T07:16:03;101121.00;;;18.90
5571;BMP180;2808;51.240;6.794;2022-07-29T07:18:31;101124.00;;;19.00
5571;BMP180;2808;51.240;6.794;2022-07-29T07:21:00;101114.00;;;19.10
5571;BMP180;2808;51.240;6.794;2022-07-29T07:23:27;101123.00;;;19.20
5571;BMP180;2808;51.240;6.794;2022-07-29T07:25:55;101119.00;;;19.20
5571;BMP180;2808;51.240;6.794;2022-07-29T07:28:24;101124.00;;;19.20
5571;BMP180;2808;51.240;6.794;2022-07-29T07:30:51;101126.00;;;19.20
5571;BMP180;2808;51.240;6.794;2022-07-29T07:33:19;101120.00;;;19.20
5571;BMP180;2808;51.240;6.794;2022-07-29T07:35:53;101130.00;;;19.20
5571;BMP180;2808;51.240;6.794;2022-07-29T07:38:40;101135.00;;;19.20
5571;BMP180;2808;51.240;6.794;2022-07-29T07:41:08;101130.00;;;19.10
5571;BMP180;2808;51.240;6.794;2022-07-29T07:43:37;101128.00;;;19.10
5571;BMP180;2808;51.240;6.794;2022-07-29T07:46:07;101130.00;;;19.00
5571;BMP180;2808;51.240;6.794;2022-07-29T07:48:34;101124.00;;;19.10
5571;BMP180;2808;51.240;6.794;2022-07-29T07:54:27;101116.00;;;19.00
5571;BMP180;2808;51.240;6.794;2022-07-29T07:56:54;101115.00;;;18.90
5571;BMP180;2808;51.240;6.794;2022-07-29T07:59:26;101118.00;;;18.80
5571;BMP180;2808;51.240;6.794;2022-07-29T08:01:53;101120.00;;;18.70
5571;BMP180;2808;51.240;6.794;2022-07-29T08:04:22;101108.00;;;18.60
5571;BMP180;2808;51.240;6.794;2022-07-29T08:06:57;101111.00;;;18.50
5571;BMP180;2808;51.240;6.794;2022-07-29T08:09:28;101117.00;;;18.50
5571;BMP180;2808;51.240;6.794;2022-07-29T08:11:56;101123.00;;;18.40
5571;BMP180;2808;51.240;6.794;2022-07-29T08:14:35;101116.00;;;18.30
5571;BMP180;2808;51.240;6.794;2022-07-29T08:17:03;101119.00;;;18.20
5571;BMP180;2808;51.240;6.794;2022-07-29T08:19:31;101124.00;;;18.10
5571;BMP180;2808;51.240;6.794;2022-07-29T08:22:00;101120.00;;;18.00
5571;BMP180;2808;51.240;6.794;2022-07-29T08:24:27;101111.00;;;17.90
5571;BMP180;2808;51.240;6.794;2022-07-29T08:27:12;101107.00;;;17.90
5571;BMP180;2808;51.240;6.794;2022-07-29T08:29:44;101111.00;;;17.80
5571;BMP180;2808;51.240;6.794;2022-07-29T08:32:14;101109.00;;;17.90
5571;BMP180;2808;51.240;6.794;2022-07-29T08:34:42;101118.00;;;17.90
5571;BMP180;2808;51.240;6.794;2022-07-29T08:37:21;101124.00;;;17.90
5571;BMP180;2808;51.240;6.794;2022-07-29T08:39:48;101123.00;;;17.90
5571;BMP180;2808;51.240;6.794;2022-07-29T08:42:25;101129.00;;;17.90
5571;BMP180;2808;51.240;6.794;2022-07-29T08:44:59;101126.00;;;17.90
5571;BMP180;2808;51.240;6.794;2022-07-29T08:47:30;101125.00;;;17.90
5571;BMP180;2808;51.240;6.794;2022-07-29T08:50:01;101116.00;;;18.00
5571;BMP180;2808;51.240;6.794;2022-07-29T08:52:35;101112.00;;;18.00
5571;BMP180;2808;51.240;6.794;2022-07-29T08:55:04;101105.00;;;18.00
5571;BMP180;2808;51.240;6.794;2022-07-29T08:57:35;101108.00;;;18.00
5571;BMP180;2808;51.240;6.794;2022-07-29T09:00:15;101109.00;;;18.00
5571;BMP180;2808;51.240;6.794;2022-07-29T09:02:54;101111.00;;;18.10
5571;BMP180;2808;51.240;6.794;2022-07-29T09:05:25;101109.00;;;18.20
5571;BMP180;2808;51.240;6.794;2022-07-29T09:07:53;101109.00;;;18.20
5571;BMP180;2808;51.240;6.794;2022-07-29T09:10:24;101100.00;;;18.20
5571;BMP180;2808;51.240;6.794;2022-07-29T09:12:58;101093.00;;;18.10
5571;BMP180;2808;51.240;6.794;2022-07-29T09:15:30;101102.00;;;18.20
5571;BMP180;2808;51.240;6.794;2022-07-29T09:17:59;101108.00;;;18.40
5571;BMP180;2808;51.240;6.794;2022-07-29T09:20:29;101106.00;;;18.70
5571;BMP180;2808;51.240;6.794;2022-07-29T09:23:27;101116.00;;;19.00
5571;BMP180;2808;51.240;6.794;2022-07-29T09:26:13;101116.00;;;19.30
5571;BMP180;2808;51.240;6.794;2022-07-29T09:28:58;101107.00;;;19.60
5571;BMP180;2808;51.240;6.794;2022-07-29T09:31:51;101111.00;;;19.80
5571;BMP180;2808;51.240;6.794;2022-07-29T09:34:28;101112.00;;;19.90
5571;BMP180;2808;51.240;6.794;2022-07-29T09:37:12;101106.00;;;20.10
5571;BMP180;2808;51.240;6.794;2022-07-29T09:40:13;101115.00;;;20.30
5571;BMP180;2808;51.240;6.794;2022-07-29T09:42:53;101118.00;;;20.40
5571;BMP180;2808;51.240;6.794;2022-07-29T09:45:33;101113.00;;;20.50
5571;BMP180;2808;51.240;6.794;2022-07-29T09:48:14;101121.00;;;20.60
5571;BMP180;2808;51.240;6.794;2022-07-29T09:50:52;101123.00;;;20.60
5571;BMP180;2808;51.240;6.794;2022-07-29T09:53:33;101119.00;;;20.50
5571;BMP180;2808;51.240;6.794;2022-07-29T09:56:19;101109.00;;;20.40
5571;BMP180;2808;51.240;6.794;2022-07-29T09:59:05;101112.00;;;20.30
5571;BMP180;2808;51.240;6.794;2022-07-29T10:01:33;101124.00;;;20.30
5571;BMP180;2808;51.240;6.794;2022-07-29T10:04:03;101129.00;;;20.20
5571;BMP180;2808;51.240;6.794;2022-07-29T10:06:31;101123.00;;;20.30
5571;BMP180;2808;51.240;6.794;2022-07-29T10:09:07;101131.00;;;20.40
5571;BMP180;2808;51.240;6.794;2022-07-29T10:12:03;101130.00;;;20.40
5571;BMP180;2808;51.240;6.794;2022-07-29T10:14:34;101126.00;;;20.50
5571;BMP180;2808;51.240;6.794;2022-07-29T10:17:03;101125.00;;;20.70
5571;BMP180;2808;51.240;6.794;2022-07-29T10:19:34;101127.00;;;20.80
5571;BMP180;2808;51.240;6.794;2022-07-29T10:22:04;101124.00;;;21.00
5571;BMP180;2808;51.240;6.794;2022-07-29T10:24:32;101121.00;;;21.10
5571;BMP180;2808;51.240;6.794;2022-07-29T10:27:02;101122.00;;;21.30
5571;BMP180;2808;51.240;6.794;2022-07-29T10:29:31;101125.00;;;21.40
5571;BMP180;2808;51.240;6.794;2022-07-29T10:32:16;101119.00;;;21.50
5571;BMP180;2808;51.240;6.794;2022-07-29T10:35:06;101127.00;;;21.50
5571;BMP180;2808;51.240;6.794;2022-07-29T10:37:52;101129.00;;;21.30
5571;BMP180;2808;51.240;6.794;2022-07-29T10:40:43;101131.00;;;21.40
5571;BMP180;2808;51.240;6.794;2022-07-29T10:43:40;101135.00;;;21.60
5571;BMP180;2808;51.240;6.794;2022-07-29T10:46:12;101133.00;;;21.70
5571;BMP180;2808;51.240;6.794;2022-07-29T10:52:07;101130.00;;;21.90
5571;BMP180;2808;51.240;6.794;2022-07-29T10:54:52;101131.00;;;21.90
5571;BMP180;2808;51.240;6.794;2022-07-29T11:00:35;101130.00;;;22.10
5571;BMP180;2808;51.240;6.794;2022-07-29T11:03:03;101142.00;;;22.20
5571;BMP180;2808;51.240;6.794;2022-07-29T11:05:56;101130.00;;;22.30
5571;BMP180;2808;51.240;6.794;2022-07-29T11:08:32;101128.00;;;22.40
5571;BMP180;2808;51.240;6.794;2022-07-29T11:11:37;101128.00;;;22.50
5571;BMP180;2808;51.240;6.794;2022-07-29T11:14:07;101132.00;;;22.70
5571;BMP180;2808;51.240;6.794;2022-07-29T11:20:34;101133.00;;;23.30
5571;BMP180;2808;51.240;6.794;2022-07-29T11:23:24;101135.00;;;23.50
5571;BMP180;2808;51.240;6.794;2022-07-29T11:26:26;101130.00;;;23.50
5571;BMP180;2808;51.240;6.794;2022-07-29T11:29:16;101133.00;;;23.50
5571;BMP180;2808;51.240;6.794;2022-07-29T11:31:57;101128.00;;;23.60
5571;BMP180;2808;51.240;6.794;2022-07-29T11:34:41;101130.00;;;23.40
5571;BMP180;2808;51.240;6.794;2022-07-29T11:37:33;101129.00;;;23.40
5571;BMP180;2808;51.240;6.794;2022-07-29T11:40:15;101130.00;;;23.40
5571;BMP180;2808;51.240;6.794;2022-07-29T11:42:48;101122.00;;;23.50
5571;BMP180;2808;51.240;6.794;2022-07-29T11:45:48;101125.00;;;23.40
5571;BMP180;2808;51.240;6.794;2022-07-29T11:48:36;101124.00;;;23.50
5571;BMP180;2808;51.240;6.794;2022-07-29T11:51:20;101123.00;;;23.70
5571;BMP180;2808;51.240;6.794;2022-07-29T11:53:51;101127.00;;;23.90
5571;BMP180;2808;51.240;6.794;2022-07-29T11:56:24;101112.00;;;24.10
5571;BMP180;2808;51.240;6.794;2022-07-29T11:59:04;101122.00;;;24.30
5571;BMP180;2808;51.240;6.794;2022-07-29T12:02:02;101121.00;;;24.40
5571;BMP180;2808;51.240;6.794;2022-07-29T12:04:58;101120.00;;;24.60
5571;BMP180;2808;51.240;6.794;2022-07-29T12:08:17;101126.00;;;24.60
5571;BMP180;2808;51.240;6.794;2022-07-29T12:11:19;101119.00;;;24.60
5571;BMP180;2808;51.240;6.794;2022-07-29T12:17:30;101132.00;;;24.60
5571;BMP180;2808;51.240;6.794;2022-07-29T12:27:07;101130.00;;;24.50
5571;BMP180;2808;51.240;6.794;2022-07-29T12:29:59;101130.00;;;24.50
5571;BMP180;2808;51.240;6.794;2022-07-29T12:32:44;101136.00;;;24.60
5571;BMP180;2808;51.240;6.794;2022-07-29T12:35:14;101130.00;;;24.60
5571;BMP180;2808;51.240;6.794;2022-07-29T12:37:49;101132.00;;;24.60
5571;BMP180;2808;51.240;6.794;2022-07-29T12:40:38;101136.00;;;24.60
5571;BMP180;2808;51.240;6.794;2022-07-29T12:43:52;101136.00;;;24.80
5571;BMP180;2808;51.240;6.794;2022-07-29T12:46:37;101124.00;;;24.90
5571;BMP180;2808;51.240;6.794;2022-07-29T12:49:06;101120.00;;;25.00
5571;BMP180;2808;51.240;6.794;2022-07-29T12:51:35;101125.00;;;25.10
5571;BMP180;2808;51.240;6.794;2022-07-29T12:54:10;101126.00;;;25.20
5571;BMP180;2808;51.240;6.794;2022-07-29T12:56:57;101136.00;;;25.20
5571;BMP180;2808;51.240;6.794;2022-07-29T12:59:25;101127.00;;;25.00
5571;BMP180;2808;51.240;6.794;2022-07-29T13:02:07;101126.00;;;25.00
5571;BMP180;2808;51.240;6.794;2022-07-29T13:04:58;101131.00;;;24.90
5571;BMP180;2808;51.240;6.794;2022-07-29T13:08:39;101133.00;;;24.80
5571;BMP180;2808;51.240;6.794;2022-07-29T13:11:52;101127.00;;;24.70
5571;BMP180;2808;51.240;6.794;2022-07-29T13:14:49;101119.00;;;24.70
5571;BMP180;2808;51.240;6.794;2022-07-29T13:17:21;101121.00;;;24.90
5571;BMP180;2808;51.240;6.794;2022-07-29T13:20:07;101124.00;;;24.80
5571;BMP180;2808;51.240;6.794;2022-07-29T13:22:39;101121.00;;;24.60
5571;BMP180;2808;51.240;6.794;2022-07-29T13:25:23;101122.00;;;24.60
5571;BMP180;2808;51.240;6.794;2022-07-29T13:27:59;101124.00;;;24.50
5571;BMP180;2808;51.240;6.794;2022-07-29T13:30:26;101130.00;;;24.40
5571;BMP180;2808;51.240;6.794;2022-07-29T13:32:59;101126.00;;;24.40
5571;BMP180;2808;51.240;6.794;2022-07-29T13:35:30;101116.00;;;24.40
5571;BMP180;2808;51.240;6.794;2022-07-29T13:38:00;101123.00;;;24.50
5571;BMP180;2808;51.240;6.794;2022-07-29T13:40:39;101120.00;;;24.60
5571;BMP180;2808;51.240;6.794;2022-07-29T13:43:11;101116.00;;;24.60
5571;BMP180;2808;51.240;6.794;2022-07-29T13:45:39;101109.00;;;24.60
5571;BMP180;2808;51.240;6.794;2022-07-29T13:48:17;101114.00;;;24.70
5571;BMP180;2808;51.240;6.794;2022-07-29T13:50:50;101118.00;;;24.70
5571;BMP180;2808;51.240;6.794;2022-07-29T13:53:18;101106.00;;;24.60
5571;BMP180;2808;51.240;6.794;2022-07-29T13:55:49;101114.00;;;24.60
5571;BMP180;2808;51.240;6.794;2022-07-29T13:58:19;101115.00;;;24.50
5571;BMP180;2808;51.240;6.794;2022-07-29T14:00:47;101107.00;;;24.50
5571;BMP180;2808;51.240;6.794;2022-07-29T14:03:51;101111.00;;;24.50
5571;BMP180;2808;51.240;6.794;2022-07-29T14:07:00;101122.00;;;24.50
5571;BMP180;2808;51.240;6.794;2022-07-29T14:09:28;101112.00;;;24.40
5571;BMP180;2808;51.240;6.794;2022-07-29T14:11:59;101104.00;;;24.40
5571;BMP180;2808;51.240;6.794;2022-07-29T14:14:31;101110.00;;;24.40
5571;BMP180;2808;51.240;6.794;2022-07-29T14:16:59;101111.00;;;24.40
5571;BMP180;2808;51.240;6.794;2022-07-29T14:19:31;101101.00;;;24.20
5571;BMP180;2808;51.240;6.794;2022-07-29T14:22:03;101105.00;;;24.10
5571;BMP180;2808;51.240;6.794;2022-07-29T14:24:35;101105.00;;;24.10
5571;BMP180;2808;51.240;6.794;2022-07-29T14:27:10;101114.00;;;24.10
5571;BMP180;2808;51.240;6.794;2022-07-29T14:29:38;101105.00;;;24.10
5571;BMP180;2808;51.240;6.794;2022-07-29T14:32:08;101103.00;;;24.10
5571;BMP180;2808;51.240;6.794;2022-07-29T14:34:38;101112.00;;;24.20
5571;BMP180;2808;51.240;6.794;2022-07-29T14:37:23;101112.00;;;24.20
5571;BMP180;2808;51.240;6.794;2022-07-29T14:39:58;101106.00;;;24.10
5571;BMP180;2808;51.240;6.794;2022-07-29T14:42:37;101112.00;;;24.00
5571;BMP180;2808;51.240;6.794;2022-07-29T14:45:20;101120.00;;;24.00
5571;BMP180;2808;51.240;6.794;2022-07-29T14:48:03;101113.00;;;23.90
5571;BMP180;2808;51.240;6.794;2022-07-29T14:50:36;101116.00;;;23.90
5571;BMP180;2808;51.240;6.794;2022-07-29T14:53:12;101118.00;;;24.00
5571;BMP180;2808;51.240;6.794;2022-07-29T14:55:51;101117.00;;;24.00
5571;BMP180;2808;51.240;6.794;2022-07-29T14:58:22;101124.00;;;23.80
5571;BMP180;2808;51.240;6.794;2022-07-29T15:00:56;101123.00;;;23.70
5571;BMP180;2808;51.240;6.794;2022-07-29T15:03:48;101128.00;;;23.70
5571;BMP180;2808;51.240;6.794;2022-07-29T15:06:22;101126.00;;;23.80
5571;BMP180;2808;51.240;6.794;2022-07-29T15:09:03;101124.00;;;23.80
5571;BMP180;2808;51.240;6.794;2022-07-29T15:11:33;101120.00;;;23.80
5571;BMP180;2808;51.240;6.794;2022-07-29T15:14:04;101119.00;;;23.80
5571;BMP180;2808;51.240;6.794;2022-07-29T15:16:36;101125.00;;;23.80
5571;BMP180;2808;51.240;6.794;2022-07-29T15:19:10;101122.00;;;23.80
5571;BMP180;2808;51.240;6.794;2022-07-29T15:21:38;101130.00;;;23.80
5571;BMP180;2808;51.240;6.794;2022-07-29T15:24:12;101123.00;;;23.80
5571;BMP180;2808;51.240;6.794;2022-07-29T15:26:49;101128.00;;;23.80